Airfield :
LOGIN :

Register | Disclaimer

   EN    FR    IT 

 










Legend :    VFR   Marginal VFR   IFR   Intensive IFR   Very Intensive IFR
Visi :
Ceiling :
>= 8 km
>= 3000ft
5 to 8 km
1000 to 3000 ft
1500m to 5 km
500 to 1000 ft
800 to 1500m
200 to 500 ft
< 800m
< 200 ft
Symbols :   Thunderstorms  Fog  Heavy snow  Heavy precipitations  Wind > 20 kt
SIGMETs :     Misc.  Thunderstorms  Icing  Turbulence  Mountain Waves  Volcanic Ashes






- Airport Elevation : 327 ft
- IATA code : BHX


EGBB - Birmingham

CURRENT METAR :
  • 280520Z 19005KT 9000 NSC 01/01 Q1018

EXPIRED METARs :
  • 280450Z 24004KT 9999 FEW032 01/01 Q1018
  • 280420Z 24004KT 9999 SCT032 01/01 Q1018
  • 280350Z 16004KT 9999 NSC 01/01 Q1019
  • 280320Z 16003KT 9999 MIFG SCT022 01/01 Q1019
  • 280250Z 00000KT 9999 FEW026 00/00 Q1019
  • 280220Z 19001KT 9999 MIFG NSC 01/00 Q1019
  • 280150Z 15004KT 9000 MIFG NSC 01/01 Q1019
  • 280120Z 16002KT 8000 MIFG NSC 01/01 Q1019
  • 280050Z 16002KT 9000 MIFG FEW022 02/01 Q1019

TAF TAF EGBB
Valid from the 28 at 06:00 until the 29 at 06:00 UTC


280504Z 2806/2906 VRB04KT 9999 SCT040
PROB40 2806/2810 4000 BR
BECMG 2807/2810 19010KT
TEMPO 2811/2820 8000 -RA BKN012
PROB30
TEMPO 2813/2820 3000 RA -RADZ BKN006
BECMG 2820/2823 BKN012
PROB40
TEMPO 2820/2901 21015G25KT 6000 -RADZ BKN006
TEMPO 2901/2906 6000 RA
PROB40
TEMPO 2901/2904 21015G30KT 3000 +RA BKN006
BECMG 2903/2906 26005KT SCT030
ATIS : +44 121 780 0910



MET'MAP, your aeronautical weather chart ! - Copyright ORBIFLY December 2007 - Disclaimer

ORBIFLY MET'MAP TEAM :

Programming & Development : Alexandra Zaïnal
Original concept : Baudouin d'Aumeries
Technical & hardware support : Manuel Goepfert
Assistance : Marc-Olivier Méhu




SOURCES & CREDITS :

   NOAA